Time;durP1;ratioP1;P1;durP2;ratioP2;P2;SDS_P1;SDS_P2;PMS_P1;PMS_P2;Temp;Humidity;BMP_temperature;BMP_pressure;BME280_temperature;BME280_humidity;BME280_pressure;Samples;Min_cycle;Max_cycle;Signal;HPM_P1;HPM_P2
2023/06/14 00:00:14;;;;;;;3.25;2.53;;;15.90;99.90;;;;;;5044747;28;20033;-83
2023/06/14 00:02:41;;;;;;;5.82;3.17;;;15.80;99.90;;;;;;5044066;28;20044;-83
2023/06/14 00:05:07;;;;;;;5.00;3.10;;;15.70;99.90;;;;;;5053422;28;20076;-83
2023/06/14 00:07:42;;;;;;;4.80;3.30;;;15.70;1.00;;;;;;5042743;28;20040;-83
2023/06/14 00:10:08;;;;;;;6.20;3.08;;;15.70;1.00;;;;;;5037062;28;20380;-83
2023/06/14 00:12:34;;;;;;;6.22;3.00;;;15.70;99.90;;;;;;5037359;28;20384;-83
2023/06/14 00:15:01;;;;;;;5.20;2.88;;;15.60;99.90;;;;;;5044547;28;20070;-83
2023/06/14 00:17:29;;;;;;;8.48;3.60;;;15.60;99.90;;;;;;5042113;28;20037;-83
2023/06/14 00:19:59;;;;;;;6.22;3.05;;;15.60;99.90;;;;;;5052732;28;20044;-83
2023/06/14 00:22:25;;;;;;;7.15;3.00;;;15.60;1.00;;;;;;5039952;28;20495;-83
2023/06/14 00:24:51;;;;;;;5.97;2.58;;;15.50;1.00;;;;;;5042704;28;20090;-83
2023/06/14 00:27:17;;;;;;;5.20;2.72;;;15.40;99.90;;;;;;5052858;28;20457;-83
2023/06/14 00:29:43;;;;;;;4.30;2.70;;;15.30;99.90;;;;;;5056135;28;20037;-83
2023/06/14 00:32:09;;;;;;;5.00;2.58;;;15.20;99.90;;;;;;5044772;28;20033;-83
2023/06/14 00:34:34;;;;;;;3.88;2.42;;;15.20;99.90;;;;;;5037450;28;20044;-82
2023/06/14 00:37:00;;;;;;;4.43;2.30;;;15.10;1.00;;;;;;5040829;28;20040;-83
2023/06/14 00:39:26;;;;;;;5.63;2.33;;;15.10;99.90;;;;;;5050356;28;20126;-83
2023/06/14 00:41:52;;;;;;;5.40;2.55;;;15.00;99.90;;;;;;5039778;28;20041;-83
2023/06/14 00:44:17;;;;;;;4.90;2.40;;;14.90;1.00;;;;;;5047162;28;20048;-83
2023/06/14 00:46:45;;;;;;;4.57;2.63;;;14.90;99.90;;;;;;5049377;28;20101;-83
2023/06/14 00:49:14;;;;;;;5.28;2.53;;;14.90;99.90;;;;;;5048220;28;20076;-83
2023/06/14 00:51:41;;;;;;;4.13;2.22;;;14.80;99.90;;;;;;5049163;28;20440;-84
2023/06/14 00:54:08;;;;;;;7.35;2.20;;;14.80;99.90;;;;;;5071707;28;20040;-83
2023/06/14 00:56:36;;;;;;;4.53;2.22;;;14.80;1.00;;;;;;5066759;28;20139;-83
2023/06/14 00:59:03;;;;;;;3.88;2.50;;;14.80;99.90;;;;;;5047436;28;20032;-83
2023/06/14 01:01:32;;;;;;;3.10;2.13;;;14.70;99.90;;;;;;5049378;28;20072;-83
2023/06/14 01:03:58;;;;;;;4.15;2.33;;;14.80;99.90;;;;;;5090671;28;20036;-83
2023/06/14 01:06:33;;;;;;;4.20;2.47;;;14.70;1.00;;;;;;5063158;28;20551;-83
2023/06/14 01:09:05;;;;;;;8.27;2.40;;;14.70;1.00;;;;;;5065714;28;20041;-83
2023/06/14 01:11:36;;;;;;;5.72;2.70;;;14.70;46.50;;;;;;5065517;28;20067;-82
2023/06/14 01:14:03;;;;;;;4.95;2.30;;;14.70;99.90;;;;;;5065595;28;20070;-83
2023/06/14 01:16:31;;;;;;;6.43;2.30;;;14.60;11.50;;;;;;5050024;28;20036;-83
2023/06/14 01:18:57;;;;;;;9.32;2.42;;;14.60;1.00;;;;;;5049456;28;20106;-83
2023/06/14 01:21:24;;;;;;;5.88;2.17;;;14.50;23.50;;;;;;5048469;28;20333;-83
2023/06/14 01:23:52;;;;;;;4.47;2.00;;;14.50;1.00;;;;;;5049876;28;20383;-83
2023/06/14 01:26:22;;;;;;;4.30;2.05;;;14.50;99.90;;;;;;5049699;28;20075;-83
2023/06/14 01:28:52;;;;;;;4.47;1.88;;;14.40;99.90;;;;;;5048163;28;20064;-83
2023/06/14 01:31:21;;;;;;;3.42;1.98;;;14.40;1.00;;;;;;5044013;28;20089;-83
2023/06/14 01:33:50;;;;;;;4.75;1.85;;;14.40;99.90;;;;;;5058857;28;20040;-82
2023/06/14 01:36:20;;;;;;;5.35;2.30;;;14.30;99.90;;;;;;5056610;28;20032;-83
2023/06/14 01:38:49;;;;;;;3.92;2.17;;;14.30;99.90;;;;;;5037622;28;20057;-83
2023/06/14 01:41:16;;;;;;;2.60;2.00;;;14.30;99.90;;;;;;5039962;28;20124;-83
2023/06/14 01:43:42;;;;;;;2.28;1.80;;;14.20;99.90;;;;;;5051728;28;20040;-83
2023/06/14 01:46:09;;;;;;;3.67;2.28;;;14.20;99.90;;;;;;5039846;28;20054;-83
2023/06/14 01:48:35;;;;;;;5.47;1.95;;;14.20;99.90;;;;;;5040285;28;20037;-82
2023/06/14 01:51:01;;;;;;;3.95;1.98;;;14.20;99.90;;;;;;5040758;28;20403;-83
2023/06/14 01:53:26;;;;;;;4.82;2.00;;;14.20;99.90;;;;;;5058637;28;20055;-83
2023/06/14 01:55:54;;;;;;;5.72;2.30;;;14.20;99.90;;;;;;5050174;28;20151;-82
2023/06/14 01:58:19;;;;;;;10.23;2.42;;;14.10;99.90;;;;;;5039967;28;20116;-83
2023/06/14 02:00:45;;;;;;;2.90;2.03;;;14.10;99.90;;;;;;5047119;28;20135;-83
2023/06/14 02:03:15;;;;;;;5.80;2.22;;;14.10;99.90;;;;;;5049087;28;20091;-82
2023/06/14 02:05:41;;;;;;;3.25;1.77;;;14.10;99.90;;;;;;5044708;28;20484;-82
2023/06/14 02:08:07;;;;;;;3.20;2.10;;;14.20;99.90;;;;;;5036632;28;20102;-83
2023/06/14 02:10:33;;;;;;;3.65;2.40;;;14.10;99.90;;;;;;5054993;28;20068;-83
2023/06/14 02:12:59;;;;;;;5.47;1.90;;;14.20;99.90;;;;;;5041963;28;20041;-82
2023/06/14 02:15:33;;;;;;;3.10;2.25;;;14.10;99.90;;;;;;5044055;28;20036;-83
2023/06/14 02:18:02;;;;;;;2.85;2.25;;;14.10;99.90;;;;;;5043216;28;20097;-83
2023/06/14 02:20:28;;;;;;;6.47;2.53;;;14.10;99.90;;;;;;5034525;28;20052;-83
2023/06/14 02:22:58;;;;;;;4.72;2.38;;;14.10;99.90;;;;;;5080837;28;20045;-82
2023/06/14 02:25:23;;;;;;;3.28;1.92;;;14.10;99.90;;;;;;5046291;28;20469;-83
2023/06/14 02:27:49;;;;;;;6.00;2.50;;;14.10;99.90;;;;;;5043087;28;20835;-82
2023/06/14 02:30:15;;;;;;;4.88;2.50;;;14.10;99.90;;;;;;5049374;28;20423;-82
2023/06/14 02:32:42;;;;;;;5.57;2.70;;;14.00;99.90;;;;;;5036150;28;20041;-82
2023/06/14 02:35:08;;;;;;;5.00;2.75;;;14.00;99.90;;;;;;5042435;28;20037;-82
2023/06/14 02:37:35;;;;;;;5.72;2.38;;;13.90;99.90;;;;;;5039577;28;20436;-82
2023/06/14 02:40:05;;;;;;;4.45;2.35;;;13.80;99.90;;;;;;5037746;28;20949;-83
2023/06/14 02:42:31;;;;;;;5.30;2.45;;;13.80;99.90;;;;;;5055760;28;20043;-82
2023/06/14 02:44:57;;;;;;;5.18;2.58;;;13.80;99.90;;;;;;5054468;28;20033;-82
2023/06/14 02:47:22;;;;;;;5.78;2.80;;;13.80;99.90;;;;;;5037981;28;20372;-82
2023/06/14 02:49:48;;;;;;;6.32;3.25;;;13.80;99.90;;;;;;5041610;28;20098;-82
2023/06/14 02:52:14;;;;;;;5.03;2.55;;;13.70;99.90;;;;;;5041412;28;20475;-82
2023/06/14 02:54:40;;;;;;;8.98;2.90;;;13.70;99.90;;;;;;5055313;28;20043;-82
2023/06/14 02:57:07;;;;;;;5.70;2.58;;;13.70;99.90;;;;;;5052347;28;20032;-82
2023/06/14 02:59:33;;;;;;;3.65;2.50;;;13.70;99.90;;;;;;5041613;28;20052;-82
2023/06/14 03:01:59;;;;;;;4.25;2.65;;;13.60;99.90;;;;;;5057871;28;20037;-83
2023/06/14 03:04:28;;;;;;;3.70;2.28;;;13.60;99.90;;;;;;5055080;28;20034;-83
2023/06/14 03:06:54;;;;;;;4.05;2.60;;;13.50;99.90;;;;;;5045733;28;20045;-82
2023/06/14 03:09:20;;;;;;;5.60;3.00;;;13.50;99.90;;;;;;5050507;28;20051;-83
2023/06/14 03:11:46;;;;;;;6.88;3.10;;;13.50;99.90;;;;;;5044435;28;20147;-82
2023/06/14 03:14:13;;;;;;;3.95;2.60;;;13.40;99.90;;;;;;5042073;28;20116;-83
2023/06/14 03:16:41;;;;;;;4.60;2.80;;;13.40;99.90;;;;;;5040002;28;20037;-83
2023/06/14 03:19:06;;;;;;;4.50;2.90;;;13.40;99.90;;;;;;5050680;28;20138;-82
2023/06/14 03:21:34;;;;;;;4.40;2.72;;;13.30;99.90;;;;;;5042739;28;20124;-82
2023/06/14 03:24:02;;;;;;;7.28;3.05;;;13.40;99.90;;;;;;5042314;28;20721;-82
2023/06/14 03:26:30;;;;;;;4.70;2.70;;;13.40;99.90;;;;;;5056736;28;20055;-83
2023/06/14 03:28:55;;;;;;;6.10;2.78;;;13.40;99.90;;;;;;5050338;28;20179;-83
2023/06/14 03:31:21;;;;;;;6.75;3.35;;;13.40;99.90;;;;;;5059849;28;20135;-82
2023/06/14 03:33:47;;;;;;;5.40;2.72;;;13.40;99.90;;;;;;5054220;28;20040;-83
2023/06/14 03:36:13;;;;;;;4.68;2.65;;;13.40;99.90;;;;;;5033884;28;20482;-82
2023/06/14 03:38:38;;;;;;;4.40;2.90;;;13.40;99.90;;;;;;5062723;28;20049;-83
2023/06/14 03:41:04;;;;;;;5.15;2.70;;;13.40;99.90;;;;;;5044564;28;20037;-83
2023/06/14 03:43:30;;;;;;;7.60;2.75;;;13.40;99.90;;;;;;5059454;28;20158;-83
2023/06/14 03:45:56;;;;;;;8.10;3.13;;;13.50;99.90;;;;;;5063117;28;20350;-83
2023/06/14 03:48:21;;;;;;;4.90;2.85;;;13.50;99.90;;;;;;5045143;28;20048;-82
2023/06/14 03:50:47;;;;;;;5.88;3.00;;;13.50;99.90;;;;;;5053303;28;20396;-82
2023/06/14 03:53:12;;;;;;;4.80;2.83;;;13.60;99.90;;;;;;5042492;28;20055;-82
2023/06/14 03:55:39;;;;;;;10.23;2.90;;;13.60;99.90;;;;;;5053484;28;20040;-82
2023/06/14 03:58:05;;;;;;;7.28;3.03;;;13.60;99.90;;;;;;5052815;28;20163;-82
2023/06/14 04:00:35;;;;;;;8.05;3.05;;;13.70;99.90;;;;;;5036045;28;20130;-82
2023/06/14 04:03:00;;;;;;;4.68;3.05;;;13.70;99.90;;;;;;5043136;28;20118;-82
2023/06/14 04:05:26;;;;;;;6.22;2.95;;;13.80;99.90;;;;;;5042664;28;20033;-82
2023/06/14 04:07:55;;;;;;;10.38;3.40;;;13.90;99.90;;;;;;5042377;28;20044;-82
2023/06/14 04:10:21;;;;;;;4.60;2.80;;;13.90;99.90;;;;;;5049988;28;20052;-82
2023/06/14 04:12:46;;;;;;;6.50;3.15;;;14.00;99.90;;;;;;5043736;28;20033;-83
2023/06/14 04:15:13;;;;;;;4.25;3.15;;;14.10;99.90;;;;;;5057457;28;20151;-82
2023/06/14 04:17:39;;;;;;;9.52;3.45;;;14.20;99.90;;;;;;5041922;28;20041;-83
2023/06/14 04:20:06;;;;;;;6.55;3.30;;;14.20;99.90;;;;;;5041729;28;20377;-83
2023/06/14 04:22:33;;;;;;;11.68;3.28;;;14.30;99.90;;;;;;5033837;28;20036;-83
2023/06/14 04:24:59;;;;;;;3.88;2.72;;;14.40;99.90;;;;;;5058947;28;20102;-83
2023/06/14 04:27:27;;;;;;;5.70;3.38;;;14.50;99.90;;;;;;5057123;28;20398;-83
2023/06/14 04:29:56;;;;;;;4.55;3.10;;;14.50;99.90;;;;;;5041101;28;20564;-82
2023/06/14 04:32:38;;;;;;;6.60;3.40;;;14.60;99.90;;;;;;5043679;28;20399;-83
2023/06/14 04:35:06;;;;;;;4.40;3.03;;;14.70;99.90;;;;;;5051778;28;20435;-82
2023/06/14 04:37:33;;;;;;;4.38;3.20;;;14.80;99.90;;;;;;5039736;28;20102;-83
2023/06/14 04:40:02;;;;;;;6.95;3.05;;;14.90;99.90;;;;;;5014129;28;1112474;-83
2023/06/14 04:42:30;;;;;;;4.72;3.22;;;14.90;99.90;;;;;;5056596;28;20037;-82
2023/06/14 04:44:59;;;;;;;8.60;3.78;;;15.00;99.90;;;;;;5046874;28;20119;-83
2023/06/14 04:47:29;;;;;;;5.88;3.85;;;15.00;99.90;;;;;;5054226;28;20364;-82
2023/06/14 04:49:55;;;;;;;7.78;3.67;;;15.10;99.90;;;;;;5050391;28;20053;-83
2023/06/14 04:52:21;;;;;;;7.63;3.60;;;15.10;99.90;;;;;;5043211;28;20051;-82
2023/06/14 04:54:47;;;;;;;7.10;3.58;;;15.30;99.90;;;;;;5045144;28;20036;-83
2023/06/14 04:57:17;;;;;;;6.22;3.65;;;15.30;99.90;;;;;;5059142;28;20068;-82
2023/06/14 04:59:44;;;;;;;4.22;3.40;;;15.50;99.90;;;;;;5042605;28;20193;-83
2023/06/14 05:02:11;;;;;;;4.70;3.58;;;15.50;99.90;;;;;;5052429;28;20107;-82
2023/06/14 05:04:39;;;;;;;9.65;3.50;;;15.70;99.90;;;;;;5043103;28;20166;-82
2023/06/14 05:07:09;;;;;;;6.40;3.70;;;15.70;99.90;;;;;;5042161;28;20068;-82
2023/06/14 05:09:38;;;;;;;5.10;3.38;;;15.80;99.90;;;;;;5048444;28;20095;-82
2023/06/14 05:12:07;;;;;;;6.25;4.07;;;15.80;99.90;;;;;;5055192;28;20045;-82
2023/06/14 05:14:36;;;;;;;5.50;3.78;;;15.90;99.90;;;;;;5043329;28;20190;-82
2023/06/14 05:17:02;;;;;;;4.97;3.58;;;16.00;99.90;;;;;;5044701;28;20047;-83
2023/06/14 05:19:28;;;;;;;7.45;3.67;;;16.00;99.90;;;;;;5057729;28;20040;-82
2023/06/14 05:21:54;;;;;;;6.15;3.67;;;16.10;99.90;;;;;;5056420;28;20059;-83
2023/06/14 05:24:20;;;;;;;7.70;3.58;;;16.30;99.90;;;;;;5050367;28;20772;-83
2023/06/14 05:26:46;;;;;;;6.57;3.35;;;16.40;99.90;;;;;;5057748;28;20055;-82
2023/06/14 05:29:12;;;;;;;4.65;3.42;;;16.40;99.90;;;;;;5046346;28;20044;-82
2023/06/14 05:31:40;;;;;;;8.00;3.55;;;16.60;99.90;;;;;;5048635;28;20586;-82
2023/06/14 05:34:06;;;;;;;8.65;3.42;;;16.60;99.90;;;;;;5049854;28;20040;-82
2023/06/14 05:36:36;;;;;;;5.78;3.40;;;16.70;99.90;;;;;;5049758;28;20047;-82
2023/06/14 05:39:02;;;;;;;6.03;3.50;;;16.70;99.90;;;;;;5043292;28;20060;-83
2023/06/14 05:41:29;;;;;;;4.60;3.40;;;16.70;99.90;;;;;;5071951;28;20037;-82
2023/06/14 05:43:55;;;;;;;6.00;3.38;;;16.90;99.90;;;;;;5048428;28;20098;-82
2023/06/14 05:46:24;;;;;;;5.63;3.30;;;17.00;99.90;;;;;;5058999;28;20463;-82
2023/06/14 05:48:51;;;;;;;5.30;3.17;;;17.10;99.90;;;;;;5045561;28;20044;-82
2023/06/14 05:51:18;;;;;;;5.80;3.35;;;17.20;99.90;;;;;;5039037;28;20403;-83
2023/06/14 05:53:48;;;;;;;6.68;3.22;;;17.20;99.90;;;;;;5058640;28;20041;-82
2023/06/14 05:56:15;;;;;;;5.25;3.28;;;17.20;1.00;;;;;;5050354;28;20452;-82
2023/06/14 05:58:41;;;;;;;4.95;3.20;;;17.30;1.00;;;;;;5051755;28;20566;-83
2023/06/14 06:01:07;;;;;;;5.63;3.00;;;17.40;99.90;;;;;;5054185;28;20041;-82
2023/06/14 06:03:33;;;;;;;6.28;2.97;;;17.50;1.00;;;;;;5052607;28;20041;-82
2023/06/14 06:05:59;;;;;;;4.38;3.17;;;17.60;99.90;;;;;;5049285;28;20052;-82
2023/06/14 06:08:25;;;;;;;8.52;2.97;;;17.70;99.90;;;;;;5035811;28;20408;-82
2023/06/14 06:10:51;;;;;;;7.97;3.42;;;17.80;99.90;;;;;;5052308;28;20041;-83
2023/06/14 06:13:16;;;;;;;8.88;3.55;;;17.80;1.00;;;;;;5032890;28;20040;-83
2023/06/14 06:15:42;;;;;;;4.70;3.00;;;17.90;99.90;;;;;;5039862;28;20044;-82
2023/06/14 06:18:11;;;;;;;6.45;2.95;;;17.90;99.90;;;;;;5034445;28;20438;-83
2023/06/14 06:20:36;;;;;;;7.88;3.20;;;18.00;99.90;;;;;;5053306;28;20547;-83
2023/06/14 06:23:02;;;;;;;6.65;3.30;;;18.10;8.10;;;;;;5047915;28;20451;-82
2023/06/14 06:25:28;;;;;;;7.00;2.90;;;18.20;99.90;;;;;;5037504;28;20035;-82
2023/06/14 06:27:56;;;;;;;6.47;2.83;;;18.40;1.00;;;;;;5060193;28;20113;-82
2023/06/14 06:30:22;;;;;;;5.85;3.20;;;18.40;99.90;;;;;;5033726;28;20592;-82
2023/06/14 06:32:48;;;;;;;4.55;3.00;;;18.50;99.90;;;;;;5049375;28;20472;-82
2023/06/14 06:35:14;;;;;;;4.95;2.80;;;18.50;67.50;;;;;;5049867;28;20679;-82
2023/06/14 06:37:40;;;;;;;8.57;3.05;;;18.60;98.60;;;;;;5048407;28;20304;-82
2023/06/14 06:40:07;;;;;;;7.10;3.35;;;18.80;99.90;;;;;;5033155;28;20083;-82
2023/06/14 06:42:33;;;;;;;9.07;3.10;;;18.90;99.90;;;;;;5040505;28;20083;-82
2023/06/14 06:44:59;;;;;;;6.85;2.88;;;18.90;99.90;;;;;;5042475;28;20452;-82
2023/06/14 06:47:25;;;;;;;3.88;2.65;;;19.10;99.90;;;;;;5043096;28;20422;-82
2023/06/14 06:49:50;;;;;;;5.80;2.92;;;19.10;1.00;;;;;;5040019;28;20652;-82
2023/06/14 06:52:16;;;;;;;3.97;2.67;;;19.30;99.90;;;;;;5040470;28;20101;-82
2023/06/14 06:54:42;;;;;;;5.50;2.85;;;19.50;99.90;;;;;;5037601;28;20340;-82
2023/06/14 06:57:08;;;;;;;4.40;2.80;;;19.50;99.90;;;;;;5048258;28;20055;-82
2023/06/14 06:59:35;;;;;;;4.43;3.20;;;19.60;45.90;;;;;;5038811;28;20052;-82
2023/06/14 07:02:00;;;;;;;5.68;2.90;;;19.60;99.90;;;;;;5041463;28;20059;-82
2023/06/14 07:04:26;;;;;;;2.97;2.55;;;19.80;1.00;;;;;;5035848;28;20036;-82
2023/06/14 07:06:52;;;;;;;4.70;2.42;;;19.90;99.90;;;;;;5047935;28;20044;-82
2023/06/14 07:09:19;;;;;;;3.22;2.58;;;20.10;99.90;;;;;;5050735;28;20055;-82
2023/06/14 07:11:46;;;;;;;4.00;2.70;;;20.00;99.90;;;;;;5033725;28;20037;-82
2023/06/14 07:14:12;;;;;;;5.80;2.47;;;20.20;99.90;;;;;;5066310;28;20048;-82
2023/06/14 07:16:38;;;;;;;4.68;2.47;;;20.20;1.00;;;;;;5037587;28;20052;-82
2023/06/14 07:19:04;;;;;;;5.82;2.65;;;20.30;4.90;;;;;;5041125;28;20045;-82
2023/06/14 07:21:30;;;;;;;3.95;2.58;;;20.40;1.00;;;;;;5030430;28;20282;-82
2023/06/14 07:23:56;;;;;;;5.93;2.60;;;20.60;1.00;;;;;;5049023;28;20036;-82
2023/06/14 07:26:22;;;;;;;5.18;2.45;;;20.50;99.90;;;;;;5040688;28;20037;-82
2023/06/14 07:28:48;;;;;;;4.82;2.50;;;20.70;1.00;;;;;;5040421;28;20562;-82
2023/06/14 07:31:15;;;;;;;6.32;2.63;;;20.70;99.90;;;;;;5034734;28;20037;-82
2023/06/14 07:33:42;;;;;;;4.25;2.25;;;20.60;99.90;;;;;;5040551;28;20109;-82
2023/06/14 07:36:08;;;;;;;6.07;2.55;;;20.90;99.90;;;;;;5061763;28;20041;-82
2023/06/14 07:38:34;;;;;;;3.67;2.40;;;21.10;99.90;;;;;;5046916;28;20044;-82
2023/06/14 07:41:00;;;;;;;4.22;2.70;;;21.10;99.90;;;;;;5044654;28;20111;-82
2023/06/14 07:43:26;;;;;;;4.07;2.20;;;21.20;99.90;;;;;;5053886;28;20048;-82
2023/06/14 07:45:52;;;;;;;3.22;2.20;;;21.20;99.90;;;;;;5046377;28;20448;-82
2023/06/14 07:48:18;;;;;;;5.53;2.35;;;21.30;99.90;;;;;;5042564;28;20028;-82
2023/06/14 07:50:44;;;;;;;5.40;2.40;;;21.40;99.90;;;;;;5053372;28;20495;-82
2023/06/14 07:53:09;;;;;;;4.22;2.60;;;21.30;99.90;;;;;;5043051;28;20040;-82
2023/06/14 07:55:36;;;;;;;3.47;2.15;;;21.30;99.90;;;;;;5040922;28;20036;-83
2023/06/14 07:58:06;;;;;;;3.65;2.50;;;21.30;99.90;;;;;;5039216;28;20127;-82
2023/06/14 08:00:35;;;;;;;3.33;2.13;;;21.50;99.90;;;;;;5045250;28;20427;-83
2023/06/14 08:03:01;;;;;;;4.18;2.63;;;21.50;99.90;;;;;;5045542;28;20194;-82
2023/06/14 08:05:27;;;;;;;3.13;2.20;;;21.50;71.60;;;;;;5050974;28;20442;-82
2023/06/14 08:07:53;;;;;;;2.75;2.10;;;21.60;54.00;;;;;;5051539;28;20119;-82
2023/06/14 08:10:19;;;;;;;4.10;2.20;;;21.60;99.90;;;;;;5051467;28;20178;-82
2023/06/14 08:12:44;;;;;;;5.32;2.10;;;21.60;56.50;;;;;;5056014;28;20474;-82
2023/06/14 08:15:10;;;;;;;3.97;2.10;;;21.90;71.90;;;;;;5054979;28;20044;-82
2023/06/14 08:17:36;;;;;;;4.93;2.00;;;21.90;78.30;;;;;;5042058;28;20078;-82
2023/06/14 08:20:04;;;;;;;3.28;2.20;;;22.10;17.20;;;;;;5056819;28;20213;-82
2023/06/14 08:22:33;;;;;;;4.03;2.22;;;22.30;5.90;;;;;;5052799;28;20048;-82
2023/06/14 08:24:59;;;;;;;3.00;2.10;;;22.20;1.00;;;;;;5059631;28;20070;-82
2023/06/14 08:27:25;;;;;;;4.95;2.10;;;22.20;1.00;;;;;;5052160;28;20051;-81
2023/06/14 08:29:51;;;;;;;4.07;2.30;;;22.10;1.00;;;;;;5042832;28;20044;-82
2023/06/14 08:32:16;;;;;;;4.65;2.13;;;22.20;1.00;;;;;;5043012;28;20383;-81
2023/06/14 08:34:42;;;;;;;4.85;2.20;;;22.30;1.00;;;;;;5049288;28;20123;-82
2023/06/14 08:37:08;;;;;;;2.90;2.10;;;22.40;1.00;;;;;;5037240;28;20044;-82
2023/06/14 08:39:33;;;;;;;2.92;1.90;;;22.50;1.00;;;;;;5052771;28;20127;-82
2023/06/14 08:42:02;;;;;;;3.22;2.20;;;22.50;1.00;;;;;;5059011;28;20434;-82
2023/06/14 08:44:28;;;;;;;5.75;2.40;;;22.60;1.00;;;;;;5039292;28;20041;-82
2023/06/14 08:46:57;;;;;;;3.08;2.00;;;22.70;1.00;;;;;;5054616;28;20511;-82
2023/06/14 08:49:24;;;;;;;3.42;2.05;;;22.70;1.00;;;;;;5043605;28;20038;-82
2023/06/14 08:52:00;;;;;;;3.58;2.00;;;22.90;1.00;;;;;;5050888;28;20040;-82
2023/06/14 08:54:30;;;;;;;6.80;2.50;;;22.80;1.00;;;;;;5052851;28;20041;-82
2023/06/14 08:56:59;;;;;;;2.90;2.00;;;23.30;1.00;;;;;;5054083;28;20511;-82
2023/06/14 08:59:26;;;;;;;4.43;2.20;;;23.30;1.00;;;;;;5043002;28;20124;-82
2023/06/14 09:01:54;;;;;;;4.30;2.10;;;23.40;1.00;;;;;;5052976;28;20045;-82
2023/06/14 09:04:21;;;;;;;3.42;2.17;;;23.50;99.90;;;;;;5039957;28;20139;-82
2023/06/14 09:06:52;;;;;;;4.53;1.90;;;23.60;99.90;;;;;;5041816;28;20036;-82
2023/06/14 09:09:22;;;;;;;4.68;2.35;;;23.60;99.90;;;;;;5043194;28;20127;-82
2023/06/14 09:11:50;;;;;;;4.22;2.25;;;23.50;99.90;;;;;;5050514;28;20085;-82
2023/06/14 09:14:16;;;;;;;6.35;2.05;;;23.60;99.90;;;;;;5051848;28;20076;-81
2023/06/14 09:16:41;;;;;;;6.72;2.47;;;23.40;99.90;;;;;;5040983;28;20452;-82
2023/06/14 09:19:07;;;;;;;4.47;2.25;;;23.40;99.90;;;;;;5052055;28;20116;-82
2023/06/14 09:21:42;;;;;;;4.68;2.10;;;23.60;99.90;;;;;;5053156;28;20063;-82
2023/06/14 09:24:14;;;;;;;8.05;2.03;;;23.80;99.90;;;;;;5046080;28;20451;-82
2023/06/14 09:26:43;;;;;;;2.75;2.10;;;23.70;99.90;;;;;;5034511;28;20048;-82
2023/06/14 09:29:09;;;;;;;7.22;2.42;;;23.90;99.90;;;;;;5060007;28;20055;-82
2023/06/14 09:31:35;;;;;;;5.70;2.13;;;23.90;99.90;;;;;;5044040;28;20075;-81
2023/06/14 09:34:02;;;;;;;4.25;2.30;;;23.90;99.90;;;;;;5052808;28;20155;-81
2023/06/14 09:36:31;;;;;;;5.13;2.30;;;23.80;99.90;;;;;;5050721;28;20044;-82
2023/06/14 09:39:04;;;;;;;3.17;2.10;;;24.10;99.90;;;;;;5039010;28;20314;-82
2023/06/14 09:41:36;;;;;;;6.43;2.20;;;24.30;99.90;;;;;;5045311;28;20058;-82
2023/06/14 09:44:04;;;;;;;5.38;2.33;;;24.30;99.90;;;;;;5046845;28;20083;-82
2023/06/14 09:46:30;;;;;;;4.10;2.03;;;24.30;99.90;;;;;;5039550;28;20516;-82
2023/06/14 09:48:56;;;;;;;4.28;2.10;;;24.50;99.90;;;;;;5042729;28;20040;-82
2023/06/14 09:51:23;;;;;;;3.67;2.20;;;24.60;99.90;;;;;;5048777;28;20040;-82
2023/06/14 09:53:50;;;;;;;4.82;2.33;;;24.60;99.90;;;;;;5039900;28;20037;-82
2023/06/14 09:56:29;;;;;;;6.00;2.20;;;24.70;99.90;;;;;;5055907;28;20037;-82
2023/06/14 09:58:57;;;;;;;3.60;1.80;;;24.90;99.90;;;;;;5054927;28;20036;-82
2023/06/14 10:01:27;;;;;;;4.07;2.13;;;24.90;99.90;;;;;;5049914;28;20098;-82
2023/06/14 10:03:57;;;;;;;2.80;1.80;;;24.90;99.90;;;;;;5041997;28;20064;-82
2023/06/14 10:06:25;;;;;;;3.47;2.00;;;24.90;99.90;;;;;;5048962;28;20083;-82
2023/06/14 10:08:53;;;;;;;2.58;1.88;;;24.90;99.90;;;;;;5050796;28;20293;-82
2023/06/14 10:11:19;;;;;;;2.53;2.08;;;24.70;99.90;;;;;;5040425;28;20056;-82
2023/06/14 10:13:45;;;;;;;4.10;2.05;;;24.80;99.90;;;;;;5039949;28;20060;-82
2023/06/14 10:16:24;;;;;;;5.65;2.20;;;24.80;99.90;;;;;;5058780;28;20037;-82
2023/06/14 10:18:58;;;;;;;5.03;2.15;;;25.00;99.90;;;;;;5034601;28;20127;-82
2023/06/14 10:21:33;;;;;;;3.37;1.90;;;25.00;99.90;;;;;;5054488;28;20046;-82
2023/06/14 10:24:04;;;;;;;3.15;2.30;;;25.10;99.90;;;;;;5038295;28;20041;-82
2023/06/14 10:26:30;;;;;;;5.60;2.17;;;25.10;99.90;;;;;;5036797;28;20040;-82
2023/06/14 10:29:07;;;;;;;4.70;2.47;;;25.20;99.90;;;;;;5047997;28;20047;-82
2023/06/14 10:31:44;;;;;;;4.43;2.10;;;24.90;99.90;;;;;;5053946;28;20094;-82
2023/06/14 10:34:10;;;;;;;4.82;1.80;;;24.90;99.90;;;;;;5047524;28;20563;-81
2023/06/14 10:36:36;;;;;;;3.13;2.08;;;25.20;99.90;;;;;;5033534;28;20473;-82
2023/06/14 10:39:06;;;;;;;3.95;1.80;;;25.00;99.90;;;;;;5041832;28;20048;-82
2023/06/14 10:41:36;;;;;;;5.25;1.80;;;25.40;99.90;;;;;;5051003;28;20500;-82
2023/06/14 10:44:24;;;;;;;6.70;2.00;;;25.70;99.90;;;;;;5051168;28;20044;-82
2023/06/14 10:46:52;;;;;;;3.10;1.98;;;25.20;99.90;;;;;;5022609;28;20044;-82
2023/06/14 10:49:19;;;;;;;5.40;2.15;;;25.60;99.90;;;;;;5035309;28;20041;-81
2023/06/14 10:51:49;;;;;;;3.58;1.73;;;25.80;99.90;;;;;;5046130;28;20114;-82
2023/06/14 10:54:21;;;;;;;2.80;1.90;;;25.80;99.90;;;;;;5047139;28;20522;-82
2023/06/14 10:56:51;;;;;;;1.73;1.50;;;26.20;99.90;;;;;;5041294;28;20123;-82
2023/06/14 10:59:18;;;;;;;3.28;1.83;;;26.20;99.90;;;;;;5038503;28;20408;-82
2023/06/14 11:01:59;;;;;;;2.40;1.63;;;26.40;99.90;;;;;;5041306;28;20794;-82
2023/06/14 11:04:46;;;;;;;4.05;1.40;;;26.80;99.90;;;;;;5039711;28;20041;-82
2023/06/14 11:07:43;;;;;;;3.53;1.80;;;26.90;99.90;;;;;;5055847;28;20048;-82
2023/06/14 11:10:40;;;;;;;5.05;1.88;;;27.00;99.90;;;;;;5054103;28;20037;-82
2023/06/14 11:13:09;;;;;;;2.20;1.85;;;26.70;99.90;;;;;;5043041;28;20135;-82
2023/06/14 11:15:43;;;;;;;2.45;1.55;;;26.60;99.90;;;;;;5053291;28;20049;-81
2023/06/14 11:18:11;;;;;;;6.47;1.88;;;26.60;99.90;;;;;;5051448;28;20047;-82
2023/06/14 11:20:37;;;;;;;2.63;1.60;;;26.50;99.90;;;;;;5042083;28;20457;-82
2023/06/14 11:23:04;;;;;;;2.47;1.67;;;27.00;99.90;;;;;;5053702;28;20064;-82
2023/06/14 11:25:30;;;;;;;3.83;1.77;;;27.10;99.90;;;;;;5056213;28;20127;-82
2023/06/14 11:27:56;;;;;;;3.35;1.50;;;27.10;99.90;;;;;;5043595;28;20087;-82
2023/06/14 11:30:23;;;;;;;5.32;1.70;;;27.10;99.90;;;;;;5046319;28;20562;-81
2023/06/14 11:32:51;;;;;;;3.40;1.40;;;27.00;99.90;;;;;;5053598;28;20041;-82
2023/06/14 11:35:18;;;;;;;2.75;1.70;;;26.70;99.90;;;;;;5052696;28;20052;-82
2023/06/14 11:37:44;;;;;;;5.05;1.40;;;27.00;99.90;;;;;;5049654;28;20499;-82
2023/06/14 11:40:12;;;;;;;3.03;1.58;;;27.10;99.90;;;;;;5038070;28;20494;-82
2023/06/14 11:42:42;;;;;;;3.33;1.42;;;27.50;99.90;;;;;;5045527;28;20058;-82
2023/06/14 11:45:09;;;;;;;3.95;1.58;;;27.80;99.90;;;;;;5055524;28;20048;-82
2023/06/14 11:47:36;;;;;;;3.05;1.30;;;27.80;99.90;;;;;;5048288;28;20048;-81
2023/06/14 11:50:02;;;;;;;4.90;1.90;;;28.10;99.90;;;;;;5035794;28;20127;-82
2023/06/14 11:52:28;;;;;;;1.85;1.48;;;27.70;99.90;;;;;;5045167;28;20140;-82
2023/06/14 11:54:54;;;;;;;2.60;1.30;;;28.00;99.90;;;;;;5042021;28;20555;-82
2023/06/14 11:57:20;;;;;;;3.00;1.50;;;27.70;99.90;;;;;;5055114;28;20126;-82
2023/06/14 11:59:46;;;;;;;2.85;1.40;;;27.90;99.90;;;;;;5040732;28;20033;-82
2023/06/14 12:02:16;;;;;;;2.00;1.52;;;27.70;99.90;;;;;;5048824;28;20075;-82
2023/06/14 12:04:48;;;;;;;2.00;1.20;;;28.00;99.90;;;;;;5043870;28;20144;-82
2023/06/14 12:07:19;;;;;;;3.47;1.65;;;28.10;99.90;;;;;;5043290;28;20149;-82
2023/06/14 12:09:54;;;;;;;5.80;1.55;;;28.20;99.90;;;;;;5055546;28;20040;-82
2023/06/14 12:12:26;;;;;;;2.60;1.40;;;28.00;99.90;;;;;;5041267;28;20040;-82
2023/06/14 12:14:53;;;;;;;10.05;1.88;;;28.00;99.90;;;;;;5050578;28;20173;-82
2023/06/14 12:17:19;;;;;;;2.90;1.60;;;28.40;99.90;;;;;;5060747;28;20115;-82
2023/06/14 12:19:46;;;;;;;2.38;1.80;;;28.00;99.90;;;;;;5051402;28;20033;-82
2023/06/14 12:22:13;;;;;;;4.57;1.60;;;28.10;99.90;;;;;;5053366;28;20410;-82
2023/06/14 12:24:42;;;;;;;2.42;1.58;;;28.40;99.90;;;;;;5044605;28;20116;-82
2023/06/14 12:27:08;;;;;;;2.22;1.50;;;28.60;99.90;;;;;;5042019;28;20032;-82
2023/06/14 12:29:34;;;;;;;3.65;1.80;;;28.30;99.90;;;;;;5057869;28;20045;-82
2023/06/14 12:32:00;;;;;;;2.20;1.42;;;28.30;99.90;;;;;;5053320;28;20037;-82
2023/06/14 12:34:27;;;;;;;3.47;1.60;;;28.60;99.90;;;;;;5042225;28;20098;-82
2023/06/14 12:36:54;;;;;;;3.28;1.75;;;28.30;99.90;;;;;;5042409;28;20053;-82
2023/06/14 12:39:20;;;;;;;2.97;1.70;;;28.80;99.90;;;;;;5052989;28;20060;-82
2023/06/14 12:41:46;;;;;;;5.60;1.65;;;28.80;99.90;;;;;;5051675;28;20043;-82
2023/06/14 12:44:13;;;;;;;3.30;1.80;;;29.30;99.90;;;;;;5049950;28;20048;-82
2023/06/14 12:46:42;;;;;;;5.22;1.88;;;29.20;99.90;;;;;;5035124;28;20040;-82
2023/06/14 12:49:12;;;;;;;5.38;1.80;;;27.90;99.90;;;;;;5044342;28;20299;-82